PAGS Airport Information

Runway Information
Runway 02 Length 3010 ft width 60 ft
Elevation 28 ft Threshold 0 ft Heading 41
Runway 20 Length 3010 ft Width 60 ft
Elevation 30 ft Threshold 0 ft Heading 221
Runway 11 Length 6720 ft width 150 ft
Elevation 34 ft Threshold 0 ft Heading 135
Runway 29 Length 6720 ft Width 150 ft
Elevation 26 ft Threshold 0 ft Heading 315
Airport Frequencies
Type AWOS Name AWOS 3 Frequency 125.9 MHZ
Type CNTR Name ANCHORAGE Frequency 133.2 MHZ
Type CTAF Name CTAF Frequency 122.5 MHZ
Type RCO Name JUNEAU RDO Frequency 122.65 MHZ
Airport Navaids
Type NDB Name Gustavus Frequency 219 KHZ
Airport Weather Information & NOTAM
ADDS - METARS form results

(2056 UTC 23 February 2019)
Data provider http://aviationweather.gov/metar/data/
 
Forecast for: PAGS (GUSTAVUS , AK, US)
Text: PAGS 231720Z 2318/2418 36007KT P6SM SKC AMD LTD TO CLD VIS AND WIND
Forecast period: 1800 UTC 23 February 2019 to 1800 UTC 24 February 2019
Forecast type: FROM: standard forecast or significant change
Winds: from the N (360 degrees) at 8 MPH (7 knots; 3.6 m/s)
Visibility: 6 or more miles 10+ km)
Clouds: clear skies
Weather: no significant weather forecast for this period